createdAt,value
2022-10-19T00:00:33.748Z,88.7
2022-10-19T00:01:33.759Z,88.6
2022-10-19T00:02:33.971Z,88.6
2022-10-19T00:03:33.769Z,88.6
2022-10-19T00:04:33.773Z,88.5
2022-10-19T00:05:33.780Z,88.5
2022-10-19T00:06:33.810Z,88.4
2022-10-19T00:07:34.922Z,88.4
2022-10-19T00:08:33.795Z,88.3
2022-10-19T00:09:33.810Z,88.3
2022-10-19T00:10:33.814Z,88.3
2022-10-19T00:11:33.863Z,88.3
2022-10-19T00:12:33.829Z,88.3
2022-10-19T00:13:33.846Z,88.2
2022-10-19T00:14:33.844Z,88.2
2022-10-19T00:15:33.860Z,88.0
2022-10-19T00:16:33.897Z,87.9
2022-10-19T00:17:34.756Z,87.9
2022-10-19T00:18:33.877Z,88.0
2022-10-19T00:19:33.890Z,88.0
2022-10-19T00:20:33.896Z,88.0
2022-10-19T00:21:33.903Z,87.8
2022-10-19T00:22:34.891Z,87.7
2022-10-19T00:23:33.928Z,87.6
2022-10-19T00:24:33.929Z,87.6
2022-10-19T00:25:33.938Z,87.6
2022-10-19T00:26:33.941Z,87.6
2022-10-19T00:27:33.955Z,87.6
2022-10-19T00:28:34.219Z,87.6
2022-10-19T00:29:33.973Z,87.5
2022-10-19T00:30:33.973Z,87.5
2022-10-19T00:31:33.981Z,87.5
2022-10-19T00:32:35.084Z,87.2
2022-10-19T00:33:34.004Z,87.2
2022-10-19T00:34:34.007Z,87.2
2022-10-19T00:35:34.019Z,87.2
2022-10-19T00:36:34.027Z,87.2
2022-10-19T00:37:34.029Z,87.2
2022-10-19T00:38:34.044Z,87.2
2022-10-19T00:39:34.049Z,87.2
2022-10-19T00:40:34.056Z,87.3
2022-10-19T00:58:34.559Z,87.0
2022-10-19T00:59:34.218Z,87.0
2022-10-19T01:00:34.238Z,87.0
2022-10-19T01:01:34.476Z,86.9
2022-10-19T01:02:35.781Z,86.9
2022-10-19T01:03:34.256Z,86.9
2022-10-19T01:04:34.274Z,86.5
2022-10-19T01:05:34.275Z,86.5
2022-10-19T01:06:34.274Z,86.1
2022-10-19T01:07:35.445Z,86.2
2022-10-19T01:08:34.291Z,86.2
2022-10-19T01:09:34.308Z,86.1
2022-10-19T01:10:34.310Z,86.0
2022-10-19T01:11:34.320Z,86.0
2022-10-19T01:12:34.330Z,86.0
2022-10-19T01:13:34.337Z,85.9
2022-10-19T01:14:34.353Z,86.0
2022-10-19T01:15:34.348Z,85.8
2022-10-19T01:16:34.367Z,85.8
2022-10-19T01:17:35.474Z,85.9
2022-10-19T01:18:34.372Z,85.7
2022-10-19T01:19:34.385Z,85.6
2022-10-19T01:20:34.389Z,85.6
2022-10-19T01:21:34.390Z,85.6
2022-10-19T01:22:34.401Z,85.6
2022-10-19T01:23:34.407Z,85.2
2022-10-19T01:24:40.909Z,85.3
2022-10-19T01:25:34.426Z,85.3
2022-10-19T01:26:34.429Z,84.8
2022-10-19T01:44:34.774Z,82.9
2022-10-19T01:45:34.584Z,83.0
2022-10-19T01:46:34.602Z,82.9
2022-10-19T01:47:35.638Z,82.9
2022-10-19T01:48:34.651Z,82.9
2022-10-19T01:49:34.618Z,82.9
2022-10-19T01:50:34.628Z,83.1
2022-10-19T01:51:34.643Z,83.2
2022-10-19T01:52:35.513Z,83.3
2022-10-19T01:53:34.663Z,82.9
2022-10-19T01:54:34.679Z,82.9
2022-10-19T01:55:34.678Z,82.2
2022-10-19T01:56:34.687Z,82.0
2022-10-19T01:57:34.704Z,82.4
2022-10-19T01:58:34.709Z,82.3
2022-10-19T01:59:34.718Z,82.0
2022-10-19T02:00:34.734Z,82.1
2022-10-19T02:01:34.748Z,82.1
2022-10-19T02:02:35.894Z,82.2
2022-10-19T02:03:34.750Z,80.7
2022-10-19T02:04:34.768Z,81.0
2022-10-19T02:05:34.778Z,81.5
2022-10-19T02:06:34.780Z,80.8
2022-10-19T02:07:34.799Z,80.8
2022-10-19T02:08:34.802Z,80.7
2022-10-19T02:09:34.812Z,80.5
2022-10-19T02:10:34.827Z,80.6
2022-10-19T02:11:34.829Z,80.3
2022-10-19T02:12:35.967Z,79.8
2022-10-19T02:13:34.847Z,80.3
2022-10-19T02:14:34.855Z,80.2
2022-10-19T02:15:35.042Z,79.7
2022-10-19T02:16:34.870Z,79.7
2022-10-19T02:17:34.885Z,78.9
2022-10-19T02:18:34.892Z,78.8
2022-10-19T02:19:34.897Z,78.5
2022-10-19T02:20:34.911Z,77.4
2022-10-19T02:21:34.906Z,77.4
2022-10-19T02:22:35.988Z,77.6
2022-10-19T02:23:34.926Z,77.7
2022-10-19T02:24:34.948Z,77.6
2022-10-19T02:25:34.950Z,77.4
2022-10-19T02:26:34.961Z,76.7
2022-10-19T02:27:34.972Z,77.1
2022-10-19T02:28:34.978Z,76.8
2022-10-19T02:29:34.984Z,76.5
2022-10-19T02:30:34.998Z,76.1
2022-10-19T02:31:35.008Z,76.4
2022-10-19T02:32:35.952Z,76.2
2022-10-19T02:33:35.026Z,76.4
2022-10-19T02:34:35.037Z,76.1
2022-10-19T02:35:35.059Z,75.8
2022-10-19T02:36:35.048Z,76.1
2022-10-19T02:38:35.100Z,76.5
2022-10-19T02:39:35.100Z,76.5
2022-10-19T02:40:35.079Z,76.8
2022-10-19T02:41:35.093Z,76.9
2022-10-19T02:42:36.381Z,77.2
2022-10-19T02:43:35.107Z,77.0
2022-10-19T02:44:35.116Z,77.2
2022-10-19T02:45:35.129Z,77.2
2022-10-19T02:46:35.291Z,77.3
2022-10-19T02:47:36.314Z,77.3
2022-10-19T02:48:35.151Z,77.3
2022-10-19T02:49:35.162Z,77.4
2022-10-19T02:50:35.165Z,77.6
2022-10-19T02:51:35.183Z,77.5
2022-10-19T02:52:35.187Z,77.7
2022-10-19T02:53:35.217Z,77.5
2022-10-19T02:54:35.201Z,77.6
2022-10-19T02:55:35.338Z,77.7
2022-10-19T02:56:35.225Z,77.8
2022-10-19T02:57:36.447Z,77.9
2022-10-19T02:58:35.240Z,77.8
2022-10-19T02:59:35.249Z,77.5
2022-10-19T03:00:35.488Z,77.7
2022-10-19T03:01:35.268Z,77.7
2022-10-19T03:02:35.276Z,77.6
2022-10-19T03:03:35.281Z,77.7
2022-10-19T03:04:35.418Z,77.5
2022-10-19T03:05:35.308Z,77.3
2022-10-19T03:06:35.308Z,77.4
2022-10-19T03:07:36.606Z,77.6
2022-10-19T03:08:35.324Z,77.7
2022-10-19T03:09:35.332Z,77.8
2022-10-19T03:10:35.359Z,77.6
2022-10-19T03:11:35.354Z,77.6
2022-10-19T03:12:35.366Z,77.4
2022-10-19T03:13:35.504Z,77.3
2022-10-19T03:14:35.390Z,77.2
2022-10-19T03:15:35.399Z,77.1
2022-10-19T03:16:35.408Z,77.1
2022-10-19T03:17:36.648Z,77.2
2022-10-19T03:18:35.433Z,77.2
2022-10-19T03:19:35.441Z,77.1
2022-10-19T03:20:35.450Z,76.9
2022-10-19T03:21:35.464Z,76.8
2022-10-19T03:22:35.475Z,76.7
2022-10-19T03:23:35.488Z,76.5
2022-10-19T03:24:35.495Z,77.0
2022-10-19T03:25:35.503Z,76.6
2022-10-19T03:26:35.519Z,76.7
2022-10-19T03:27:36.740Z,76.6
2022-10-19T03:28:35.663Z,76.5
2022-10-19T03:29:35.542Z,76.9
2022-10-19T03:30:35.556Z,76.8
2022-10-19T03:31:35.576Z,76.7
2022-10-19T03:32:35.569Z,77.0
2022-10-19T03:33:35.577Z,76.6
2022-10-19T03:34:35.578Z,76.5
2022-10-19T03:35:35.594Z,76.7
2022-10-19T03:36:35.610Z,76.8
2022-10-19T03:37:37.053Z,77.2
2022-10-19T03:38:35.616Z,77.0
2022-10-19T03:39:35.637Z,77.2
2022-10-19T03:40:35.645Z,77.2
2022-10-19T03:41:35.653Z,77.2
2022-10-19T03:42:35.652Z,77.2
2022-10-19T03:43:35.665Z,77.3
2022-10-19T03:44:35.678Z,77.3
2022-10-19T03:45:35.717Z,77.3
2022-10-19T03:46:35.704Z,77.4
2022-10-19T03:47:36.928Z,77.4
2022-10-19T03:48:35.720Z,77.2
2022-10-19T03:49:40.588Z,77.2
2022-10-19T03:50:35.742Z,77.4
2022-10-19T03:51:35.746Z,77.2
2022-10-19T03:52:35.752Z,77.5
2022-10-19T03:53:35.758Z,77.4
2022-10-19T03:54:35.766Z,77.3
2022-10-19T03:55:35.776Z,77.3
2022-10-19T03:56:35.815Z,77.4
2022-10-19T03:57:36.838Z,77.5
2022-10-19T03:58:35.803Z,77.6
2022-10-19T03:59:35.813Z,77.2
2022-10-19T04:00:35.825Z,77.2
2022-10-19T04:01:35.840Z,77.3
2022-10-19T04:02:35.845Z,77.2
2022-10-19T04:04:35.868Z,77.3
2022-10-19T04:05:35.879Z,77.1
2022-10-19T04:06:35.902Z,77.1
2022-10-19T04:07:36.587Z,76.8
2022-10-19T04:08:35.907Z,77.2
2022-10-19T04:09:35.921Z,77.5
2022-10-19T04:10:35.938Z,77.6
2022-10-19T04:11:35.942Z,77.1
2022-10-19T04:12:35.947Z,77.6
2022-10-19T04:13:35.963Z,77.9
2022-10-19T04:14:57.557Z,77.9
2022-10-19T04:15:35.986Z,77.7
2022-10-19T04:16:36.006Z,77.8
2022-10-19T04:17:37.147Z,77.8
2022-10-19T04:18:36.010Z,78.0
2022-10-19T04:19:36.055Z,77.0
2022-10-19T04:20:36.048Z,77.1
2022-10-19T04:21:36.052Z,77.7
2022-10-19T04:22:36.057Z,77.6
2022-10-19T04:23:36.081Z,77.5
2022-10-19T04:24:36.092Z,77.4
2022-10-19T04:25:36.092Z,77.4
2022-10-19T04:26:36.098Z,77.5
2022-10-19T04:27:37.131Z,77.5
2022-10-19T04:28:36.229Z,77.4
2022-10-19T04:29:36.126Z,77.3
2022-10-19T04:30:36.129Z,77.4
2022-10-19T04:31:36.150Z,77.2
2022-10-19T04:32:36.152Z,77.2
2022-10-19T04:33:36.339Z,77.1
2022-10-19T04:34:40.368Z,77.0
2022-10-19T04:35:36.183Z,77.1
2022-10-19T04:36:36.201Z,77.5
2022-10-19T04:37:37.040Z,77.2
2022-10-19T04:38:36.217Z,77.0
2022-10-19T04:39:36.217Z,77.0
2022-10-19T04:40:36.227Z,77.2
2022-10-19T04:41:36.233Z,77.5
2022-10-19T04:42:36.248Z,76.9
2022-10-19T04:43:36.264Z,77.4
2022-10-19T04:44:36.263Z,77.5
2022-10-19T04:45:36.271Z,77.5
2022-10-19T04:46:36.270Z,77.7
2022-10-19T04:47:37.190Z,77.8
2022-10-19T04:48:36.293Z,77.8
2022-10-19T04:49:36.309Z,77.4
2022-10-19T04:50:36.314Z,76.8
2022-10-19T04:51:36.342Z,76.7
2022-10-19T04:52:36.332Z,77.0
2022-10-19T04:53:36.340Z,77.0
2022-10-19T04:54:36.346Z,76.9
2022-10-19T04:55:36.363Z,77.3
2022-10-19T04:56:36.363Z,77.2
2022-10-19T04:57:37.255Z,77.3
2022-10-19T04:58:36.376Z,77.0
2022-10-19T04:59:36.385Z,77.5
2022-10-19T05:00:36.575Z,77.2
2022-10-19T05:01:36.401Z,77.3
2022-10-19T05:02:36.416Z,77.3
2022-10-19T05:03:36.425Z,77.1
2022-10-19T05:04:36.438Z,76.9
2022-10-19T05:05:36.448Z,77.0
2022-10-19T05:06:36.452Z,77.4
2022-10-19T05:07:37.142Z,77.3
2022-10-19T05:08:36.483Z,77.4
2022-10-19T05:09:36.474Z,77.2
2022-10-19T05:10:36.492Z,77.2
2022-10-19T05:11:36.495Z,76.9
2022-10-19T05:12:36.509Z,76.6
2022-10-19T05:13:36.533Z,76.6
2022-10-19T05:14:43.135Z,76.7
2022-10-19T05:15:36.542Z,76.6
2022-10-19T05:16:36.560Z,76.4
2022-10-19T05:17:37.524Z,76.7
2022-10-19T05:18:36.576Z,76.6
2022-10-19T05:19:36.593Z,76.5
2022-10-19T05:20:36.617Z,76.3
2022-10-19T05:21:36.615Z,76.5
2022-10-19T05:22:36.632Z,76.6
2022-10-19T05:23:36.648Z,76.2
2022-10-19T05:24:36.656Z,76.4
2022-10-19T05:25:36.657Z,76.8
2022-10-19T05:26:36.666Z,76.8
2022-10-19T05:27:37.510Z,76.8
2022-10-19T05:28:36.877Z,77.0
2022-10-19T05:29:36.700Z,76.8
2022-10-19T05:30:36.706Z,76.8
2022-10-19T05:31:36.715Z,76.9
2022-10-19T05:32:36.731Z,76.9
2022-10-19T05:33:36.734Z,76.8
2022-10-19T05:34:36.754Z,76.7
2022-10-19T05:35:36.757Z,77.0
2022-10-19T05:36:36.793Z,77.3
2022-10-19T05:37:37.697Z,77.5
2022-10-19T05:38:36.780Z,77.6
2022-10-19T05:39:36.789Z,77.5
2022-10-19T05:40:36.801Z,77.7
2022-10-19T05:41:36.809Z,77.6
2022-10-19T05:42:36.821Z,77.6
2022-10-19T05:43:36.823Z,77.6
2022-10-19T05:45:36.853Z,77.4
2022-10-19T05:46:36.859Z,77.4
2022-10-19T05:47:37.848Z,77.4
2022-10-19T05:48:36.887Z,77.4
2022-10-19T05:49:36.901Z,77.6
2022-10-19T05:50:36.914Z,77.7
2022-10-19T05:51:36.924Z,77.6
2022-10-19T05:52:36.941Z,77.6
2022-10-19T05:53:39.956Z,77.9
2022-10-19T05:54:36.951Z,78.0
2022-10-19T05:55:36.960Z,77.9
2022-10-19T05:56:36.974Z,77.9
2022-10-19T05:57:37.799Z,78.0
2022-10-19T05:58:36.999Z,77.9
2022-10-19T05:59:37.008Z,77.6
2022-10-19T06:00:37.017Z,77.6
2022-10-19T06:01:37.148Z,77.3
2022-10-19T06:02:37.040Z,77.4
2022-10-19T06:03:37.044Z,77.6
2022-10-19T06:04:37.074Z,77.8
2022-10-19T06:05:37.071Z,77.6
2022-10-19T06:06:37.078Z,77.7
2022-10-19T06:07:37.610Z,77.9
2022-10-19T06:08:37.098Z,78.0
2022-10-19T06:09:37.114Z,78.2
2022-10-19T06:10:37.120Z,78.2
2022-10-19T06:11:37.127Z,78.4
2022-10-19T06:12:37.143Z,78.3
2022-10-19T06:13:37.139Z,78.6
2022-10-19T06:14:37.397Z,78.9
2022-10-19T06:15:37.164Z,78.9
2022-10-19T06:16:37.173Z,79.1
2022-10-19T06:17:37.378Z,79.2
2022-10-19T06:18:37.202Z,79.3
2022-10-19T06:19:37.209Z,79.3
2022-10-19T06:20:37.221Z,79.5
2022-10-19T06:21:45.897Z,79.5
2022-10-19T06:22:37.241Z,79.7
2022-10-19T06:23:37.541Z,79.7
2022-10-19T06:24:37.252Z,79.7
2022-10-19T06:25:37.261Z,79.8
2022-10-19T06:26:37.265Z,79.9
2022-10-19T06:27:38.525Z,79.9
2022-10-19T06:28:37.296Z,80.3
2022-10-19T06:29:37.306Z,80.7
2022-10-19T06:30:37.561Z,80.9
2022-10-19T06:31:37.342Z,81.1
2022-10-19T06:32:37.332Z,81.3
2022-10-19T06:33:37.642Z,81.7
2022-10-19T06:34:37.367Z,82.0
2022-10-19T06:35:37.371Z,82.0
2022-10-19T06:36:37.383Z,82.1
2022-10-19T06:37:37.391Z,82.2
2022-10-19T06:38:37.429Z,82.5
2022-10-19T06:39:37.418Z,82.7
2022-10-19T06:40:37.423Z,82.7
2022-10-19T06:41:37.441Z,82.8
2022-10-19T06:42:37.448Z,83.0
2022-10-19T06:43:37.456Z,83.0
2022-10-19T06:44:37.467Z,83.0
2022-10-19T06:45:37.481Z,83.1
2022-10-19T06:46:37.497Z,83.1
2022-10-19T06:47:39.125Z,83.3
2022-10-19T06:48:37.517Z,83.3
2022-10-19T06:49:37.542Z,83.4
2022-10-19T06:50:37.545Z,83.4
2022-10-19T06:51:37.554Z,83.4
2022-10-19T06:52:37.556Z,83.4
2022-10-19T06:53:37.573Z,83.4
2022-10-19T06:54:37.577Z,83.5
2022-10-19T06:55:37.587Z,83.5
2022-10-19T06:56:37.797Z,83.4
2022-10-19T06:57:38.121Z,83.4
2022-10-19T06:58:37.634Z,83.4
2022-10-19T06:59:37.649Z,83.6
2022-10-19T07:00:37.901Z,83.5
2022-10-19T07:01:37.672Z,83.5
2022-10-19T07:02:37.686Z,83.6
2022-10-19T07:03:37.689Z,83.6
2022-10-19T07:04:37.685Z,83.6
2022-10-19T07:05:37.713Z,83.6
2022-10-19T07:06:37.711Z,83.6
2022-10-19T07:07:38.665Z,83.6
2022-10-19T07:08:37.738Z,83.6
2022-10-19T07:09:37.778Z,83.6
2022-10-19T07:10:37.756Z,83.6
2022-10-19T07:11:46.219Z,83.6
2022-10-19T07:12:37.772Z,83.6
2022-10-19T07:13:37.802Z,83.5
2022-10-19T07:14:37.990Z,83.4
2022-10-19T07:15:37.811Z,83.3
2022-10-19T07:16:37.808Z,83.5
2022-10-19T07:17:37.815Z,83.4
2022-10-19T07:18:37.820Z,83.3
2022-10-19T07:19:37.829Z,83.3
2022-10-19T07:20:37.849Z,83.2
2022-10-19T07:21:37.847Z,83.1
2022-10-19T07:22:37.854Z,83.1
2022-10-19T07:23:37.876Z,83.2
2022-10-19T07:24:37.869Z,82.9
2022-10-19T07:25:37.870Z,82.7
2022-10-19T07:26:37.885Z,82.8
2022-10-19T07:27:38.126Z,82.7
2022-10-19T07:28:37.894Z,82.6
2022-10-19T07:29:37.918Z,82.7
2022-10-19T07:30:37.914Z,82.7
2022-10-19T07:31:37.928Z,82.7
2022-10-19T07:32:37.924Z,82.6
2022-10-19T07:33:37.927Z,82.5
2022-10-19T07:34:37.947Z,82.2
2022-10-19T07:35:37.946Z,82.4
2022-10-19T07:36:37.957Z,82.3
2022-10-19T07:37:37.976Z,82.4
2022-10-19T07:38:37.971Z,82.4
2022-10-19T07:39:37.982Z,82.5
2022-10-19T07:40:37.989Z,82.5
2022-10-19T07:41:37.996Z,82.7
2022-10-19T07:42:38.027Z,82.7
2022-10-19T07:43:38.016Z,82.6
2022-10-19T07:44:38.021Z,82.6
2022-10-19T07:45:38.030Z,82.5
2022-10-19T07:46:38.041Z,82.5
2022-10-19T07:47:38.053Z,82.5
2022-10-19T07:48:38.066Z,82.5
2022-10-19T07:49:38.070Z,82.3
2022-10-19T07:50:38.085Z,82.3
2022-10-19T07:51:38.097Z,82.3
2022-10-19T07:52:39.154Z,82.3
2022-10-19T07:53:38.124Z,82.2
2022-10-19T07:54:38.123Z,82.2
2022-10-19T07:55:38.139Z,82.1
2022-10-19T07:56:38.153Z,82.0
2022-10-19T07:57:38.169Z,81.8
2022-10-19T07:58:38.176Z,81.7
2022-10-19T07:59:38.199Z,81.8
2022-10-19T08:00:41.214Z,81.9
2022-10-19T08:01:38.516Z,81.8
2022-10-19T08:03:19.195Z,81.6
2022-10-19T08:05:01.986Z,80.9
2022-10-19T08:05:38.243Z,80.8
2022-10-19T08:06:38.259Z,80.8
2022-10-19T08:07:38.261Z,81.0
2022-10-19T08:08:38.463Z,80.9
2022-10-19T08:09:54.373Z,81.0
2022-10-19T08:10:38.291Z,80.8
2022-10-19T08:11:38.297Z,80.7
2022-10-19T08:12:38.315Z,80.8
2022-10-19T08:13:38.332Z,80.8
2022-10-19T08:14:38.336Z,80.2
2022-10-19T08:15:38.346Z,80.1
2022-10-19T08:16:38.356Z,78.9
2022-10-19T08:17:38.378Z,78.6
2022-10-19T08:18:38.391Z,78.9
2022-10-19T08:19:38.365Z,78.7
2022-10-19T08:20:38.380Z,78.9
2022-10-19T08:21:38.399Z,78.3
2022-10-19T08:22:38.412Z,78.0
2022-10-19T08:23:38.418Z,77.8
2022-10-19T08:24:38.420Z,77.9
2022-10-19T08:25:38.426Z,77.5
2022-10-19T08:26:38.430Z,77.5
2022-10-19T08:27:38.486Z,76.9
2022-10-19T08:28:38.441Z,75.7
2022-10-19T08:29:38.460Z,75.7
2022-10-19T08:30:38.475Z,75.6
2022-10-19T08:31:38.472Z,75.3
2022-10-19T08:32:38.487Z,75.2
2022-10-19T08:33:38.493Z,74.5
2022-10-19T08:34:38.497Z,74.2
2022-10-19T08:35:38.516Z,73.8
2022-10-19T08:36:38.758Z,73.3
2022-10-19T08:37:46.301Z,72.9
2022-10-19T08:38:38.544Z,72.9
2022-10-19T08:39:38.562Z,72.9
2022-10-19T08:40:38.571Z,72.8
2022-10-19T08:41:38.829Z,72.5
2022-10-19T08:42:38.595Z,72.6
2022-10-19T08:43:38.607Z,72.1
2022-10-19T08:44:38.634Z,71.5
2022-10-19T08:45:38.927Z,71.7
2022-10-19T08:46:38.634Z,71.5
2022-10-19T08:47:38.906Z,71.3
2022-10-19T08:48:38.656Z,71.3
2022-10-19T08:49:38.670Z,71.2
2022-10-19T08:50:38.675Z,71.0
2022-10-19T08:51:38.670Z,70.8
2022-10-19T08:52:38.683Z,71.1
2022-10-19T08:53:38.690Z,70.9
2022-10-19T08:54:38.802Z,71.0
2022-10-19T08:55:38.706Z,70.7
2022-10-19T08:56:52.208Z,70.6
2022-10-19T08:57:38.725Z,71.0
2022-10-19T08:58:38.740Z,70.2
2022-10-19T08:59:38.740Z,70.1
2022-10-19T09:01:38.800Z,70.2
2022-10-19T09:02:38.775Z,70.1
2022-10-19T09:03:56.895Z,69.9
2022-10-19T09:04:38.794Z,70.2
2022-10-19T09:05:38.810Z,70.4
2022-10-19T09:06:39.026Z,69.7
2022-10-19T09:07:38.829Z,69.5
2022-10-19T09:08:39.074Z,69.6
2022-10-19T09:09:39.016Z,69.4
2022-10-19T09:10:38.872Z,69.9
2022-10-19T09:11:38.887Z,70.1
2022-10-19T09:12:38.905Z,69.2
2022-10-19T09:14:04.941Z,68.5
2022-10-19T09:14:38.926Z,68.7
2022-10-19T09:15:38.935Z,68.9
2022-10-19T09:16:38.930Z,68.2
2022-10-19T09:17:38.992Z,68.5
2022-10-19T09:18:39.229Z,68.4
2022-10-19T09:19:38.978Z,68.7
2022-10-19T09:20:38.981Z,69.0
2022-10-19T09:21:48.053Z,68.8
2022-10-19T09:22:38.992Z,68.2
2022-10-19T09:23:39.019Z,68.5
2022-10-19T09:24:39.021Z,68.5
2022-10-19T09:25:39.038Z,68.7
2022-10-19T09:26:39.051Z,68.9
2022-10-19T09:27:39.062Z,69.4
2022-10-19T09:28:40.439Z,69.4
2022-10-19T09:29:39.096Z,69.3
2022-10-19T09:30:39.105Z,69.5
2022-10-19T09:31:41.013Z,70.0
2022-10-19T09:32:39.487Z,70.5
2022-10-19T09:33:39.141Z,70.5
2022-10-19T09:34:39.143Z,71.1
2022-10-19T09:35:39.152Z,71.8
2022-10-19T09:36:51.235Z,71.8
2022-10-19T09:37:39.187Z,72.1
2022-10-19T09:38:39.196Z,71.9
2022-10-19T09:39:52.341Z,72.1
2022-10-19T09:40:40.945Z,72.4
2022-10-19T09:41:39.230Z,72.5
2022-10-19T09:42:42.872Z,72.5
2022-10-19T09:43:39.253Z,72.1
2022-10-19T09:44:39.256Z,72.2
2022-10-19T09:45:39.268Z,72.7
2022-10-19T09:46:43.057Z,72.9
2022-10-19T09:47:39.419Z,73.2
2022-10-19T09:48:39.319Z,73.7
2022-10-19T09:49:39.326Z,73.6
2022-10-19T09:50:39.396Z,73.4
2022-10-19T09:51:39.352Z,73.7
2022-10-19T09:52:39.362Z,73.7
2022-10-19T09:53:39.362Z,73.5
2022-10-19T09:54:39.371Z,73.5
2022-10-19T09:55:39.658Z,73.7
2022-10-19T09:56:39.388Z,73.7
2022-10-19T09:57:39.408Z,72.8
2022-10-19T09:58:39.424Z,73.3
2022-10-19T09:59:39.434Z,73.3
2022-10-19T10:00:39.435Z,72.8
2022-10-19T10:01:44.086Z,73.0
2022-10-19T10:02:39.939Z,72.9
2022-10-19T10:03:39.495Z,72.7
2022-10-19T10:04:39.485Z,72.7
2022-10-19T10:05:39.491Z,70.3
2022-10-19T10:06:39.522Z,70.5
2022-10-19T10:07:39.510Z,71.0
2022-10-19T10:08:39.844Z,70.7
2022-10-19T10:09:39.539Z,68.1
2022-10-19T10:10:39.550Z,67.4
2022-10-19T10:11:39.563Z,67.9
2022-10-19T10:12:39.622Z,67.0
2022-10-19T10:13:39.591Z,66.4
2022-10-19T10:14:39.603Z,66.5
2022-10-19T10:15:39.623Z,66.2
2022-10-19T10:16:39.644Z,65.4
2022-10-19T10:17:39.644Z,65.9
2022-10-19T10:18:39.657Z,66.1
2022-10-19T10:19:39.664Z,65.8
2022-10-19T10:20:39.669Z,64.6
2022-10-19T10:21:39.740Z,64.3
2022-10-19T10:22:39.710Z,64.2
2022-10-19T10:23:39.735Z,63.9
2022-10-19T10:24:39.737Z,62.9
2022-10-19T10:25:39.749Z,62.4
2022-10-19T10:26:39.812Z,62.2
2022-10-19T10:27:39.781Z,61.7
2022-10-19T10:28:39.788Z,61.7
2022-10-19T10:29:39.795Z,60.9
2022-10-19T10:30:39.816Z,60.9
2022-10-19T10:31:39.816Z,60.9
2022-10-19T10:32:48.046Z,60.9
2022-10-19T10:33:46.296Z,60.0
2022-10-19T10:34:55.912Z,60.4
2022-10-19T10:35:39.960Z,61.1
2022-10-19T10:36:39.862Z,61.4
2022-10-19T10:37:39.872Z,61.5
2022-10-19T10:38:39.883Z,60.3
2022-10-19T10:39:40.036Z,60.6
2022-10-19T10:40:39.900Z,60.6
2022-10-19T10:41:39.908Z,60.0
2022-10-19T10:42:39.929Z,59.8
2022-10-19T10:43:40.034Z,60.5
2022-10-19T10:44:39.955Z,60.4
2022-10-19T10:45:39.989Z,59.5
2022-10-19T10:46:39.985Z,58.2
2022-10-19T10:47:40.004Z,58.4
2022-10-19T10:48:40.017Z,59.2
2022-10-19T10:49:40.035Z,59.4
2022-10-19T10:50:40.027Z,59.9
2022-10-19T10:51:40.044Z,60.1
2022-10-19T10:52:40.044Z,59.5
2022-10-19T10:53:40.074Z,59.9
2022-10-19T10:54:40.081Z,60.1
2022-10-19T10:55:40.087Z,59.3
2022-10-19T10:56:40.102Z,58.5
2022-10-19T10:57:40.124Z,58.4
2022-10-19T10:58:40.120Z,58.5
2022-10-19T10:59:45.909Z,58.3
2022-10-19T11:00:40.176Z,57.5
2022-10-19T11:01:40.444Z,56.9
2022-10-19T11:02:40.172Z,57.5
2022-10-19T11:03:40.179Z,58.0
2022-10-19T11:04:40.196Z,58.6
2022-10-19T11:05:40.195Z,58.6
2022-10-19T11:06:44.953Z,59.1
2022-10-19T11:07:40.216Z,59.5
2022-10-19T11:08:40.357Z,59.9
2022-10-19T11:09:40.245Z,60.5
2022-10-19T11:10:40.408Z,60.2
2022-10-19T11:11:40.281Z,59.9
2022-10-19T11:12:40.291Z,60.5
2022-10-19T11:13:40.287Z,60.9
2022-10-19T11:14:40.304Z,60.6
2022-10-19T11:15:40.314Z,61.3
2022-10-19T11:16:40.318Z,61.4
2022-10-19T11:17:40.326Z,60.9
2022-10-19T11:18:40.338Z,61.2
2022-10-19T11:19:40.352Z,61.5
2022-10-19T11:20:40.355Z,61.9
2022-10-19T11:21:40.497Z,61.7
2022-10-19T11:22:40.486Z,61.9
2022-10-19T11:23:40.384Z,62.7
2022-10-19T11:24:48.583Z,62.7
2022-10-19T11:25:40.397Z,63.3
2022-10-19T11:26:40.416Z,62.8
2022-10-19T11:27:40.431Z,62.6
2022-10-19T11:28:40.437Z,62.2
2022-10-19T11:29:40.471Z,62.4
2022-10-19T11:30:47.420Z,62.5
2022-10-19T11:31:40.466Z,62.4
2022-10-19T11:32:40.467Z,61.8
2022-10-19T11:33:40.599Z,62.1
2022-10-19T11:34:40.484Z,62.1
2022-10-19T11:35:40.508Z,61.8
2022-10-19T11:36:40.529Z,61.8
2022-10-19T11:38:18.681Z,61.5
2022-10-19T11:38:40.546Z,61.2
2022-10-19T11:39:40.553Z,61.3
2022-10-19T11:41:16.718Z,61.4
2022-10-19T11:41:40.562Z,61.1
2022-10-19T11:42:40.760Z,60.2
2022-10-19T11:43:40.586Z,60.1
2022-10-19T11:44:40.598Z,58.9
2022-10-19T11:45:40.613Z,58.6
2022-10-19T11:46:40.618Z,59.2
2022-10-19T11:47:40.624Z,58.0
2022-10-19T11:48:44.140Z,58.1
2022-10-19T11:49:40.648Z,58.2
2022-10-19T11:50:53.998Z,58.6
2022-10-19T11:51:40.670Z,59.2
2022-10-19T11:52:40.681Z,59.2
2022-10-19T11:53:40.688Z,59.7
2022-10-19T11:54:40.691Z,59.6
2022-10-19T11:55:40.716Z,60.1
2022-10-19T11:57:04.197Z,60.6
2022-10-19T11:57:40.716Z,60.8
2022-10-19T11:58:40.740Z,61.1
2022-10-19T11:59:40.750Z,61.3
2022-10-19T12:00:41.123Z,61.6
2022-10-19T12:01:40.893Z,62.0
2022-10-19T12:02:40.789Z,62.1
2022-10-19T12:03:40.794Z,62.5
2022-10-19T12:04:40.837Z,62.0
2022-10-19T12:05:40.964Z,62.0
2022-10-19T12:06:40.860Z,62.4
2022-10-19T12:07:40.831Z,62.9
2022-10-19T12:08:41.054Z,63.2
2022-10-19T12:09:40.910Z,63.2
2022-10-19T12:10:40.871Z,63.2
2022-10-19T12:11:40.881Z,61.9
2022-10-19T12:12:40.897Z,62.6
2022-10-19T12:13:40.912Z,63.4
2022-10-19T12:14:40.928Z,63.3
2022-10-19T12:15:40.941Z,63.5
2022-10-19T12:16:40.958Z,63.4
2022-10-19T12:17:41.014Z,63.5
2022-10-19T12:18:40.977Z,63.7
2022-10-19T12:19:40.986Z,64.2
2022-10-19T12:20:40.990Z,63.7
2022-10-19T12:21:40.999Z,64.2
2022-10-19T12:22:41.003Z,64.1
2022-10-19T12:23:41.012Z,64.3
2022-10-19T12:24:41.023Z,64.1
2022-10-19T12:25:41.029Z,64.2
2022-10-19T12:26:41.043Z,64.0
2022-10-19T12:27:41.049Z,63.5
2022-10-19T12:28:41.075Z,62.9
2022-10-19T12:29:41.082Z,62.9
2022-10-19T12:30:41.094Z,62.8
2022-10-19T12:31:41.114Z,63.0
2022-10-19T12:32:41.115Z,62.7
2022-10-19T12:33:41.177Z,62.7
2022-10-19T12:34:41.149Z,62.7
2022-10-19T12:35:41.167Z,62.7
2022-10-19T12:36:41.174Z,62.2
2022-10-19T12:37:41.178Z,61.7
2022-10-19T12:38:50.856Z,61.0
2022-10-19T12:39:41.189Z,61.2
2022-10-19T12:40:41.207Z,61.0
2022-10-19T12:41:41.225Z,61.2
2022-10-19T12:42:41.220Z,61.2
2022-10-19T12:43:41.235Z,61.3
2022-10-19T12:44:41.249Z,61.0
2022-10-19T12:45:41.242Z,60.9
2022-10-19T12:46:41.260Z,61.1
2022-10-19T12:47:41.259Z,61.3
2022-10-19T12:48:41.270Z,61.6
2022-10-19T12:49:41.295Z,61.4
2022-10-19T12:50:41.302Z,61.8
2022-10-19T12:51:41.307Z,62.3
2022-10-19T12:52:41.315Z,62.6
2022-10-19T12:53:41.334Z,62.6
2022-10-19T12:54:41.343Z,62.8
2022-10-19T12:55:45.781Z,63.1
2022-10-19T12:56:41.366Z,63.1
2022-10-19T12:57:41.386Z,63.2
2022-10-19T12:58:48.274Z,63.2
2022-10-19T12:59:41.415Z,63.7
2022-10-19T13:00:41.540Z,63.7
2022-10-19T13:01:41.425Z,63.8
2022-10-19T13:02:41.451Z,63.4
2022-10-19T13:03:41.442Z,63.4
2022-10-19T13:04:41.447Z,63.5
2022-10-19T13:05:41.460Z,63.5
2022-10-19T13:06:41.477Z,63.6
2022-10-19T13:07:41.616Z,63.4
2022-10-19T13:08:41.659Z,63.5
2022-10-19T13:09:41.511Z,63.2
2022-10-19T13:10:41.511Z,62.0
2022-10-19T13:11:41.529Z,62.6
2022-10-19T13:12:41.561Z,63.0
2022-10-19T13:13:41.590Z,63.2
2022-10-19T13:14:41.558Z,63.4
2022-10-19T13:15:41.567Z,62.8
2022-10-19T13:16:41.587Z,63.0
2022-10-19T13:17:41.588Z,63.1
2022-10-19T13:18:41.606Z,63.2
2022-10-19T13:19:41.620Z,63.4
2022-10-19T13:20:41.652Z,62.8
2022-10-19T13:21:41.669Z,62.9
2022-10-19T13:22:41.757Z,63.1
2022-10-19T13:23:41.677Z,63.0
2022-10-19T13:25:41.693Z,62.9
2022-10-19T13:26:41.735Z,62.9
2022-10-19T13:27:41.727Z,63.1
2022-10-19T13:28:41.728Z,63.2
2022-10-19T13:29:41.784Z,62.9
2022-10-19T13:30:41.887Z,62.3
2022-10-19T13:31:41.791Z,62.4
2022-10-19T13:32:41.802Z,62.6
2022-10-19T13:33:41.817Z,62.7
2022-10-19T13:34:41.833Z,62.3
2022-10-19T13:35:41.847Z,62.5
2022-10-19T13:36:41.867Z,62.7
2022-10-19T13:37:41.875Z,62.4
2022-10-19T13:38:41.913Z,62.5
2022-10-19T13:39:41.898Z,62.7
2022-10-19T13:40:41.904Z,62.4
2022-10-19T13:41:41.918Z,62.1
2022-10-19T13:42:42.123Z,62.1
2022-10-19T13:43:41.936Z,62.5
2022-10-19T13:44:41.957Z,62.7
2022-10-19T13:45:45.034Z,62.7
2022-10-19T13:46:41.978Z,62.8
2022-10-19T13:47:42.015Z,62.7
2022-10-19T13:48:42.018Z,62.2
2022-10-19T13:49:42.034Z,62.3
2022-10-19T13:50:42.048Z,62.1
2022-10-19T13:51:42.055Z,61.9
2022-10-19T13:52:42.071Z,61.8
2022-10-19T13:53:42.085Z,62.0
2022-10-19T13:54:42.101Z,61.9
2022-10-19T13:55:47.633Z,62.1
2022-10-19T13:56:42.152Z,62.5
2022-10-19T13:57:42.143Z,62.2
2022-10-19T13:58:42.466Z,61.9